createdAt,value
2017-08-15T07:37:38.803Z,22.0
2017-08-15T07:38:40.579Z,22.2
2017-08-15T07:39:42.299Z,22.1
2017-08-15T07:40:44.013Z,22.2
2017-08-15T07:41:45.860Z,22.3
2017-08-15T07:42:47.588Z,22.3
2017-08-15T07:43:49.324Z,22.5
2017-08-15T07:44:51.072Z,22.6
2017-08-15T07:45:52.970Z,22.8
2017-08-15T07:46:54.692Z,22.8
2017-08-15T07:47:56.427Z,22.9
2017-08-15T07:48:58.156Z,23.0
2017-08-15T07:49:59.892Z,22.9
2017-08-15T07:51:01.690Z,22.9
2017-08-15T07:52:04.477Z,22.9
2017-08-15T07:53:06.148Z,23.1
2017-08-15T07:54:07.847Z,23.0
2017-08-15T07:55:09.613Z,23.1
2017-08-15T07:56:11.326Z,23.1
2017-08-15T07:57:14.126Z,23.2
2017-08-15T07:58:15.876Z,23.3
2017-08-15T07:59:17.624Z,23.3
2017-08-15T08:00:19.505Z,23.2
2017-08-15T08:01:21.240Z,23.3
2017-08-15T08:02:23.222Z,23.3
2017-08-15T08:03:25.059Z,23.4
2017-08-15T08:04:26.860Z,23.4
2017-08-15T08:05:28.670Z,23.4
2017-08-15T08:06:30.412Z,23.4
2017-08-15T08:07:32.139Z,23.4
2017-08-15T08:08:33.958Z,23.4
2017-08-15T08:09:35.742Z,23.5
2017-08-15T08:10:37.481Z,23.5
2017-08-15T08:11:39.314Z,23.6
2017-08-15T08:12:40.970Z,23.7
2017-08-15T08:13:42.809Z,23.8
2017-08-15T08:14:44.538Z,23.8
2017-08-15T08:15:46.320Z,23.9
2017-08-15T08:16:48.057Z,24.0
2017-08-15T08:17:49.724Z,24.0
2017-08-15T08:18:51.521Z,24.0
2017-08-15T08:19:53.191Z,23.9
2017-08-15T08:20:54.956Z,23.8
2017-08-15T08:21:57.766Z,23.9
2017-08-15T08:22:59.472Z,23.9
2017-08-15T08:24:03.551Z,23.8
2017-08-15T08:25:05.277Z,23.8
2017-08-15T08:26:07.001Z,23.8
2017-08-15T08:27:09.229Z,23.7
2017-08-15T08:28:10.881Z,23.7
2017-08-15T08:29:13.151Z,23.7
2017-08-15T08:30:14.937Z,23.7
2017-08-15T08:31:19.206Z,23.8
2017-08-15T08:32:20.832Z,23.8
2017-08-15T08:33:24.402Z,23.8
2017-08-15T08:34:26.142Z,23.8
2017-08-15T08:35:30.374Z,24.0
2017-08-15T08:36:32.023Z,24.0
2017-08-15T08:37:33.745Z,24.1
2017-08-15T08:38:35.396Z,24.2
2017-08-15T08:39:38.876Z,24.3
2017-08-15T08:40:43.380Z,24.4
2017-08-15T08:41:45.222Z,24.4
2017-08-15T08:42:48.020Z,24.4
2017-08-15T08:43:49.850Z,24.4
2017-08-15T08:44:52.589Z,24.5
2017-08-15T08:45:54.257Z,24.6
2017-08-15T08:46:58.039Z,24.7
2017-08-15T08:47:59.892Z,24.7
2017-08-15T08:49:02.720Z,24.8
2017-08-15T08:50:04.378Z,24.9
2017-08-15T09:28:44.074Z,25.7
2017-08-15T09:29:45.896Z,25.7
2017-08-15T09:30:47.652Z,25.8
2017-08-15T09:31:49.480Z,25.8
2017-08-15T09:32:51.154Z,25.8
2017-08-15T09:33:53.106Z,25.9
2017-08-15T09:34:55.389Z,25.8
2017-08-15T09:35:57.257Z,25.8
2017-08-15T09:36:59.128Z,25.8
2017-08-15T09:38:01.228Z,26.0
2017-08-15T09:39:02.927Z,26.0
2017-08-15T09:40:04.575Z,25.9
2017-08-15T09:41:06.412Z,25.9
2017-08-15T09:42:08.187Z,26.0
2017-08-15T09:43:09.969Z,26.0
2017-08-15T09:44:11.613Z,26.0
2017-08-15T09:45:13.376Z,26.0
2017-08-15T09:46:16.216Z,26.1
2017-08-15T09:47:18.112Z,26.0
2017-08-15T09:48:19.830Z,26.1
2017-08-15T09:49:21.677Z,26.1
2017-08-15T09:50:23.497Z,26.2
2017-08-15T09:51:25.316Z,26.3
2017-08-15T09:52:27.025Z,26.4
2017-08-15T09:53:28.838Z,26.4
2017-08-15T09:54:30.506Z,26.4
2017-08-15T09:55:32.266Z,26.4
2017-08-15T09:56:33.929Z,26.4
2017-08-15T09:57:35.761Z,26.3
2017-08-15T09:58:37.416Z,26.2
2017-08-15T09:59:39.311Z,26.2
2017-08-15T10:00:41.001Z,26.3
2017-08-15T10:01:42.855Z,26.3
2017-08-15T10:02:44.525Z,26.2
2017-08-15T10:03:46.378Z,26.2
2017-08-15T10:04:48.650Z,26.2
2017-08-15T10:05:50.371Z,26.1
2017-08-15T10:06:52.036Z,26.1
2017-08-15T10:07:53.852Z,26.0
2017-08-15T10:08:55.532Z,26.1
2017-08-15T10:09:57.344Z,26.1
2017-08-15T10:10:59.536Z,26.0
2017-08-15T10:12:01.388Z,26.1
2017-08-15T10:13:03.030Z,26.0
2017-08-15T10:14:04.746Z,26.1
2017-08-15T10:15:06.394Z,26.2
2017-08-15T10:16:08.371Z,26.1
2017-08-15T10:17:10.453Z,26.1
2017-08-15T10:18:12.431Z,26.2
2017-08-15T10:19:14.091Z,26.2
2017-08-15T10:20:15.839Z,26.2
2017-08-15T10:21:18.145Z,26.2
2017-08-15T10:22:22.418Z,26.2
2017-08-15T10:23:24.102Z,26.2
2017-08-15T10:24:25.913Z,26.2
2017-08-15T10:25:27.596Z,26.2
2017-08-15T10:26:29.444Z,26.3
2017-08-15T10:27:31.384Z,26.4
2017-08-15T10:28:33.208Z,26.4
2017-08-15T10:29:34.868Z,26.4
2017-08-15T10:30:36.756Z,26.4
2017-08-15T10:31:38.793Z,26.4
2017-08-15T10:32:40.624Z,26.4
2017-08-15T10:33:42.292Z,26.3
2017-08-15T10:34:44.138Z,26.1
2017-08-15T10:35:45.823Z,26.0
2017-08-15T10:36:47.621Z,25.9
2017-08-15T10:37:49.565Z,25.7
2017-08-15T10:38:51.420Z,25.4
2017-08-15T10:39:53.385Z,25.3
2017-08-15T10:40:55.245Z,25.2
2017-08-15T10:41:58.258Z,25.3
2017-08-15T10:43:00.133Z,25.2
2017-08-15T10:44:01.796Z,25.2
2017-08-15T10:45:03.630Z,25.0
2017-08-15T10:46:05.280Z,25.0
2017-08-15T10:47:07.117Z,25.0
2017-08-15T10:48:08.768Z,25.0
2017-08-15T10:49:10.953Z,25.0
2017-08-15T10:50:12.604Z,24.9
2017-08-15T10:51:14.551Z,25.0
2017-08-15T10:52:16.229Z,24.9
2017-08-15T10:53:18.659Z,24.9
2017-08-15T10:54:20.319Z,24.9
2017-08-15T10:55:22.137Z,25.0
2017-08-15T10:56:24.069Z,24.9
2017-08-15T10:57:25.753Z,25.1
2017-08-15T10:58:27.966Z,25.2
2017-08-15T10:59:30.162Z,25.3
2017-08-15T11:00:31.965Z,25.5
2017-08-15T11:01:33.687Z,25.7
2017-08-15T11:02:35.468Z,25.8
2017-08-15T11:03:37.181Z,25.9
2017-08-15T11:04:39.111Z,26.1
2017-08-15T11:05:40.832Z,26.2
2017-08-15T11:06:42.822Z,26.3
2017-08-15T11:07:44.586Z,26.3
2017-08-15T11:08:46.547Z,26.4
2017-08-15T11:09:48.314Z,26.6
2017-08-15T11:10:50.212Z,26.7
2017-08-15T11:11:54.003Z,26.6
2017-08-15T11:12:55.822Z,26.8
2017-08-15T11:13:57.619Z,26.8
2017-08-15T11:14:59.362Z,27.0
2017-08-15T11:16:01.093Z,26.9
2017-08-15T11:17:02.881Z,26.8
2017-08-15T11:18:04.862Z,26.8
2017-08-15T11:19:06.713Z,26.7
2017-08-15T11:20:08.541Z,26.7
2017-08-15T11:21:10.256Z,26.7
2017-08-15T11:22:12.136Z,26.8
2017-08-15T11:23:13.890Z,27.0
2017-08-15T11:24:15.658Z,27.0
2017-08-15T11:25:17.485Z,27.1
2017-08-15T11:26:19.215Z,27.2
2017-08-15T11:27:21.028Z,27.3
2017-08-15T11:28:22.777Z,27.4
2017-08-15T11:29:24.503Z,27.4
2017-08-15T11:30:26.282Z,27.5
2017-08-15T11:31:28.097Z,27.5
2017-08-15T11:32:29.896Z,27.6
2017-08-15T11:33:31.788Z,27.5
2017-08-15T11:34:33.524Z,27.5
2017-08-15T11:35:35.366Z,27.5
2017-08-15T11:36:37.094Z,27.5
2017-08-15T11:37:38.793Z,27.4
2017-08-15T11:38:40.555Z,27.5
2017-08-15T11:39:42.394Z,27.3
2017-08-15T11:40:44.124Z,27.4
2017-08-15T11:41:45.951Z,27.4
2017-08-15T11:42:47.761Z,27.5
2017-08-15T11:43:49.618Z,27.4
2017-08-15T11:44:51.334Z,27.4
2017-08-15T11:45:53.592Z,27.2
2017-08-15T11:47:00.010Z,27.2
2017-08-15T11:48:01.839Z,27.4
2017-08-15T11:49:08.680Z,27.5
2017-08-15T11:50:10.606Z,27.5
2017-08-15T11:51:12.352Z,27.4
2017-08-15T11:52:14.551Z,27.5
2017-08-15T11:53:21.034Z,27.5
2017-08-15T11:54:22.773Z,27.5
2017-08-15T11:55:25.859Z,27.6
2017-08-15T11:56:28.496Z,27.7
2017-08-15T11:57:42.123Z,27.7
2017-08-15T11:58:44.280Z,27.6
2017-08-15T11:59:46.055Z,27.6
2017-08-15T12:00:47.797Z,27.6
2017-08-15T12:01:54.124Z,27.7
2017-08-15T12:02:56.041Z,27.8
2017-08-15T12:03:57.979Z,27.7
2017-08-15T12:04:59.798Z,27.7
2017-08-15T12:06:03.560Z,27.7
2017-08-15T12:07:05.410Z,27.6
2017-08-15T12:08:07.250Z,27.6
2017-08-15T12:09:08.978Z,27.6
2017-08-15T12:10:10.790Z,27.8
2017-08-15T12:11:12.536Z,27.7
2017-08-15T12:12:15.682Z,27.6
2017-08-15T12:13:17.442Z,27.6
2017-08-15T12:14:21.215Z,27.5
2017-08-15T12:15:22.945Z,27.5
2017-08-15T12:16:41.569Z,27.4
2017-08-15T12:17:43.321Z,27.2
2017-08-15T12:18:45.209Z,27.1
2017-08-15T12:19:46.994Z,27.1
2017-08-15T12:20:48.819Z,27.0
2017-08-15T12:21:50.549Z,26.9
2017-08-15T12:22:52.306Z,27.0
2017-08-15T12:23:56.095Z,26.9
2017-08-15T12:24:57.751Z,26.9
2017-08-15T12:26:00.518Z,26.8
2017-08-15T12:27:02.241Z,26.8
2017-08-15T12:28:08.724Z,26.7
2017-08-15T12:29:13.243Z,26.7
2017-08-15T12:30:25.630Z,26.7
2017-08-15T12:31:27.346Z,26.7
2017-08-15T12:32:34.650Z,26.5
2017-08-15T12:33:36.396Z,26.5
2017-08-15T12:34:38.174Z,26.5
2017-08-15T12:35:39.933Z,26.5
2017-08-15T12:36:52.571Z,26.4
2017-08-15T12:37:54.314Z,26.4
2017-08-15T12:38:56.107Z,26.6
2017-08-15T12:39:57.839Z,26.5
2017-08-15T12:41:12.188Z,26.5
2017-08-15T12:42:13.913Z,26.6
2017-08-15T12:43:17.759Z,26.5
2017-08-15T12:44:19.537Z,26.6
2017-08-15T12:45:21.597Z,26.5
2017-08-15T12:46:23.355Z,26.4
2017-08-15T12:47:30.674Z,26.4
2017-08-15T12:48:32.339Z,26.4
2017-08-15T12:49:38.658Z,26.4
2017-08-15T12:50:40.419Z,26.5
2017-08-15T12:51:44.192Z,26.6
2017-08-15T12:52:45.905Z,26.6
2017-08-15T12:53:54.668Z,26.6
2017-08-15T12:54:56.445Z,26.6
2017-08-15T12:56:06.304Z,26.5
2017-08-15T12:57:08.058Z,26.6
2017-08-15T12:58:22.633Z,26.6
2017-08-15T12:59:24.352Z,26.5
2017-08-15T13:00:38.627Z,26.4
2017-08-15T13:01:40.282Z,26.5
2017-08-15T13:02:52.686Z,26.6
2017-08-15T13:03:54.396Z,26.7
2017-08-15T13:04:57.190Z,26.6
2017-08-15T13:05:58.862Z,26.7
2017-08-15T13:07:01.826Z,26.7
2017-08-15T13:08:03.602Z,26.8
2017-08-15T13:09:06.419Z,27.0
2017-08-15T13:10:11.885Z,27.1
2017-08-15T13:11:13.655Z,27.2
2017-08-15T13:12:15.394Z,27.4
2017-08-15T13:13:24.317Z,27.5
2017-08-15T13:14:26.316Z,27.5
2017-08-15T13:15:30.188Z,27.4
2017-08-15T13:16:31.934Z,27.5
2017-08-15T13:17:36.108Z,27.4
2017-08-15T13:18:37.969Z,27.3
2017-08-15T13:19:41.791Z,27.3
2017-08-15T13:20:43.454Z,27.5
2017-08-15T13:21:47.252Z,27.5
2017-08-15T13:22:48.999Z,27.6
2017-08-15T13:23:50.847Z,27.5
2017-08-15T13:24:52.766Z,27.5
2017-08-15T13:26:05.156Z,27.5
2017-08-15T13:27:06.905Z,27.5
2017-08-15T13:28:10.698Z,27.4
2017-08-15T13:29:12.442Z,27.3
2017-08-15T13:30:16.275Z,27.2
2017-08-15T13:31:18.037Z,27.3
2017-08-15T13:32:36.702Z,27.2
2017-08-15T13:33:38.458Z,27.3
2017-08-15T13:34:41.215Z,27.4
2017-08-15T13:35:42.971Z,27.4
2017-08-15T13:36:44.853Z,27.3
2017-08-15T13:37:46.562Z,27.3
2017-08-15T13:38:49.344Z,27.3
2017-08-15T13:39:51.110Z,27.4
2017-08-15T13:40:54.946Z,27.5
2017-08-15T13:41:56.754Z,27.6
2017-08-15T13:43:00.550Z,27.6
2017-08-15T13:44:02.259Z,27.8
2017-08-15T13:45:08.567Z,27.9
2017-08-15T13:46:10.351Z,27.8
2017-08-15T13:47:14.211Z,27.8
2017-08-15T13:48:15.926Z,27.7
2017-08-15T13:49:19.727Z,27.9
2017-08-15T13:50:21.418Z,27.9
2017-08-15T13:51:25.298Z,27.9
2017-08-15T13:52:27.037Z,27.9
2017-08-15T14:32:23.625Z,28.0
2017-08-15T14:33:26.479Z,28.0
2017-08-15T14:34:28.958Z,28.0
2017-08-15T14:35:30.797Z,27.9
2017-08-15T14:36:32.569Z,27.7
2017-08-15T14:37:34.394Z,27.7
2017-08-15T14:38:36.124Z,27.6
2017-08-15T14:39:37.818Z,27.5
2017-08-15T14:40:40.200Z,27.5
2017-08-15T14:41:44.427Z,27.4
2017-08-15T14:42:46.282Z,27.3
2017-08-15T14:43:49.078Z,27.3
2017-08-15T14:44:50.808Z,27.1
2017-08-15T14:45:54.183Z,27.2
2017-08-15T14:46:56.656Z,27.0
2017-08-15T14:47:58.709Z,27.0
2017-08-15T14:49:00.485Z,26.9
2017-08-15T14:50:03.357Z,26.8
2017-08-15T14:51:05.637Z,26.7
2017-08-15T14:52:12.430Z,26.6
2017-08-15T14:53:14.530Z,26.5
2017-08-15T14:54:18.431Z,26.5
2017-08-15T14:55:20.682Z,26.4
2017-08-15T14:56:23.576Z,26.4
2017-08-15T14:57:25.318Z,26.4
2017-08-15T14:58:29.245Z,26.4
2017-08-15T14:59:31.139Z,26.3
2017-08-15T15:00:34.603Z,26.3
2017-08-15T15:01:36.490Z,26.3
2017-08-15T15:02:50.116Z,26.2
2017-08-15T15:03:51.855Z,26.2
2017-08-15T15:14:19.619Z,26.4
2017-08-15T15:15:23.380Z,26.4
2017-08-15T15:16:25.133Z,26.4
2017-08-15T15:17:27.016Z,26.4
2017-08-15T15:18:28.730Z,26.4
2017-08-15T15:19:32.515Z,26.4
2017-08-15T15:20:34.241Z,26.3
2017-08-15T15:21:36.351Z,26.3
2017-08-15T15:22:38.099Z,26.2
2017-08-15T15:23:40.008Z,26.2
2017-08-15T15:24:41.862Z,26.1
2017-08-15T15:25:43.586Z,26.0
2017-08-15T15:26:45.693Z,26.0
2017-08-15T15:27:47.514Z,25.9
2017-08-15T15:28:49.290Z,25.9
2017-08-15T15:29:52.174Z,25.8
2017-08-15T15:30:53.908Z,25.8
2017-08-15T15:31:55.994Z,25.8
2017-08-15T15:32:58.290Z,25.8
2017-08-15T15:34:02.635Z,25.8
2017-08-15T15:35:04.362Z,25.8
2017-08-15T15:36:06.153Z,25.8
2017-08-15T15:37:07.881Z,25.9
2017-08-15T15:38:25.245Z,25.8
2017-08-15T15:39:27.067Z,25.8
2017-08-15T15:40:28.783Z,25.8
2017-08-15T15:41:30.559Z,25.7
2017-08-15T15:42:34.639Z,25.7
2017-08-15T15:43:36.308Z,25.7
2017-08-15T15:44:43.770Z,25.7
2017-08-15T15:45:45.558Z,25.5
2017-08-15T15:46:47.356Z,25.6
2017-08-15T15:47:49.019Z,25.6
2017-08-15T15:48:52.307Z,25.5
2017-08-15T15:49:54.394Z,25.5
2017-08-15T15:50:56.247Z,25.5
2017-08-15T15:51:57.975Z,25.5
2017-08-15T15:52:59.706Z,25.4
2017-08-15T15:54:01.443Z,25.4
2017-08-15T15:55:03.316Z,25.4
2017-08-15T15:56:05.149Z,25.4
2017-08-15T15:57:12.707Z,25.3
2017-08-15T15:58:14.811Z,25.3
2017-08-15T15:59:16.606Z,25.2
2017-08-15T16:00:18.438Z,25.2
2017-08-15T16:01:22.245Z,25.1
2017-08-15T16:02:24.018Z,25.2
2017-08-15T16:03:25.896Z,25.3
2017-08-15T16:04:27.888Z,25.3
2017-08-15T16:05:35.604Z,25.3
2017-08-15T16:06:37.712Z,25.4
2017-08-15T16:07:44.198Z,25.4
2017-08-15T16:08:46.251Z,25.4
2017-08-15T16:09:47.984Z,25.3
2017-08-15T16:10:49.717Z,25.4
2017-08-15T16:11:52.521Z,25.4
2017-08-15T16:12:54.290Z,25.3
2017-08-15T16:13:56.124Z,25.3
2017-08-15T16:14:57.898Z,25.2
2017-08-15T16:15:59.757Z,25.2
2017-08-15T16:17:01.507Z,25.1
2017-08-15T16:18:03.402Z,25.1
2017-08-15T16:19:05.283Z,25.1
2017-08-15T16:20:09.075Z,24.9
2017-08-15T16:21:10.806Z,25.0
2017-08-15T16:22:12.582Z,24.9
2017-08-15T16:23:14.242Z,24.9
2017-08-15T16:24:17.825Z,24.9
2017-08-15T16:25:19.434Z,24.9
2017-08-15T16:26:26.664Z,24.8
2017-08-15T16:27:28.414Z,24.8
2017-08-15T16:28:35.904Z,24.8
2017-08-15T16:29:37.616Z,24.8
2017-08-15T16:30:39.274Z,24.8
2017-08-15T16:31:41.035Z,24.8
2017-08-15T16:32:42.729Z,24.8
2017-08-15T16:33:44.466Z,24.8
2017-08-15T16:34:46.209Z,24.8
2017-08-15T16:35:47.928Z,24.7
2017-08-15T16:36:49.647Z,24.7
2017-08-15T16:37:51.322Z,24.7
2017-08-15T16:38:53.125Z,24.7
2017-08-15T16:39:54.851Z,24.7
2017-08-15T16:40:56.651Z,24.6
2017-08-15T16:41:58.386Z,24.6
2017-08-15T16:43:00.104Z,24.6
2017-08-15T16:44:01.841Z,24.6
2017-08-15T16:45:03.676Z,24.4
2017-08-15T16:46:05.551Z,24.4
2017-08-15T16:47:07.568Z,24.4
2017-08-15T16:48:09.212Z,24.4
2017-08-15T16:49:11.221Z,24.4
2017-08-15T16:50:13.140Z,24.4
2017-08-15T16:51:14.870Z,24.3
2017-08-15T16:52:16.878Z,24.3
2017-08-15T16:53:18.611Z,24.2
2017-08-15T16:54:20.344Z,24.3
2017-08-15T16:55:22.465Z,24.2
2017-08-15T16:56:24.146Z,24.2
2017-08-15T16:57:25.866Z,24.2
2017-08-15T16:58:28.191Z,24.1
2017-08-15T16:59:30.024Z,24.1
2017-08-15T17:00:32.118Z,24.0
2017-08-15T17:01:34.288Z,24.1
2017-08-15T17:02:36.373Z,24.1
2017-08-15T17:03:38.573Z,24.1
2017-08-15T17:04:40.530Z,24.1
2017-08-15T17:05:42.477Z,24.0
2017-08-15T17:06:44.318Z,24.0
2017-08-15T17:07:46.112Z,23.9
2017-08-15T17:08:48.412Z,23.8
2017-08-15T17:09:50.694Z,23.8
2017-08-15T17:10:52.760Z,23.9
2017-08-15T17:11:55.012Z,23.8
2017-08-15T17:12:56.753Z,23.9
2017-08-15T17:13:58.488Z,23.9
2017-08-15T17:15:00.296Z,23.9
2017-08-15T17:16:02.423Z,23.9
2017-08-15T17:17:04.099Z,23.8
2017-08-15T17:18:06.012Z,23.8
2017-08-15T17:19:07.879Z,23.8
2017-08-15T17:20:11.399Z,23.9
2017-08-15T17:21:13.198Z,23.8
2017-08-15T17:22:14.865Z,23.8
2017-08-15T17:23:16.618Z,23.8
2017-08-15T17:24:18.381Z,23.8
2017-08-15T17:25:20.266Z,23.9
2017-08-15T17:26:22.014Z,23.9
2017-08-15T17:27:23.675Z,23.9
2017-08-15T17:28:25.459Z,23.9
2017-08-15T17:29:27.213Z,24.0
2017-08-15T17:30:28.955Z,24.0
2017-08-15T17:31:30.755Z,24.0
2017-08-15T17:32:32.464Z,24.1
2017-08-15T17:33:34.208Z,24.1
2017-08-15T17:34:35.958Z,24.1
2017-08-15T17:35:37.692Z,24.1
2017-08-15T17:36:39.422Z,24.0
2017-08-15T17:37:41.154Z,24.1
2017-08-15T17:38:42.911Z,24.1
2017-08-15T17:39:44.580Z,24.1
2017-08-15T17:40:53.200Z,24.1
2017-08-15T17:41:54.879Z,24.1
2017-08-15T17:43:01.201Z,24.2
2017-08-15T17:44:02.978Z,24.2
2017-08-15T17:45:05.720Z,24.2
2017-08-15T17:46:07.400Z,24.3
2017-08-15T17:47:10.183Z,24.3
2017-08-15T17:48:11.972Z,24.4
2017-08-15T17:49:13.719Z,24.4
2017-08-15T17:50:15.458Z,24.4
2017-08-15T17:51:18.150Z,24.5
2017-08-15T17:52:19.916Z,24.5
2017-08-15T17:53:21.705Z,24.5
2017-08-15T17:54:23.572Z,24.5
2017-08-15T17:55:25.331Z,24.4
2017-08-15T17:56:27.042Z,24.3
2017-08-15T17:57:28.823Z,24.3
2017-08-15T17:58:30.656Z,24.2
2017-08-15T17:59:32.447Z,24.1
2017-08-15T18:00:34.315Z,24.1
2017-08-15T18:01:36.218Z,24.0
2017-08-15T18:02:37.885Z,24.0
2017-08-15T18:03:39.656Z,23.9
2017-08-15T18:04:41.728Z,23.9
2017-08-15T18:05:43.588Z,23.9
2017-08-15T18:06:45.351Z,23.8
2017-08-15T18:07:47.141Z,23.8
2017-08-15T18:08:49.743Z,23.8
2017-08-15T18:09:51.532Z,23.7
2017-08-15T18:10:53.211Z,23.6
2017-08-15T18:11:54.921Z,23.6
2017-08-15T18:12:56.651Z,23.6
2017-08-15T18:13:58.415Z,23.5
2017-08-15T18:15:00.228Z,23.4
2017-08-15T18:16:01.937Z,23.3
2017-08-15T18:17:03.693Z,23.3
2017-08-15T18:18:05.444Z,23.1
2017-08-15T18:19:07.168Z,23.1
2017-08-15T18:20:08.915Z,22.9
2017-08-15T18:21:10.636Z,22.9
2017-08-15T18:22:12.359Z,23.0
2017-08-15T18:23:14.020Z,22.9
2017-08-15T18:24:15.781Z,22.9
2017-08-15T18:25:17.512Z,23.0
2017-08-15T18:26:19.275Z,22.9
2017-08-15T18:27:20.961Z,22.9
2017-08-15T18:28:22.690Z,23.0
2017-08-15T18:29:24.416Z,23.0
2017-08-15T18:30:26.120Z,22.9
2017-08-15T18:31:27.874Z,23.0
2017-08-15T18:32:29.619Z,22.8
2017-08-15T18:33:31.353Z,22.9
2017-08-15T18:34:34.104Z,22.9
2017-08-15T18:35:35.764Z,22.8
2017-08-15T18:36:37.489Z,22.9
2017-08-15T18:37:39.179Z,22.9
2017-08-15T18:38:40.914Z,22.9
2017-08-15T18:39:42.739Z,22.9
2017-08-15T18:40:44.513Z,22.9
2017-08-15T18:41:46.297Z,22.8
2017-08-15T18:42:47.957Z,22.8
2017-08-15T18:43:51.711Z,22.7
2017-08-15T18:44:53.472Z,22.8
2017-08-15T18:45:56.202Z,22.8
2017-08-15T18:46:58.163Z,22.8
2017-08-15T18:47:59.904Z,22.8
2017-08-15T18:49:01.573Z,22.8
2017-08-15T18:50:03.350Z,22.8
2017-08-15T18:51:05.145Z,22.8
2017-08-15T18:52:07.891Z,22.9
2017-08-15T18:53:09.703Z,22.8
2017-08-15T18:54:11.400Z,22.9
2017-08-15T18:55:13.260Z,22.9
2017-08-15T18:56:19.825Z,22.9
2017-08-15T18:57:21.562Z,22.7
2017-08-15T18:58:23.386Z,22.8
2017-08-15T18:59:25.125Z,22.7
2017-08-15T19:00:43.799Z,22.8
2017-08-15T19:01:45.543Z,22.8
2017-08-15T19:02:48.291Z,22.8
2017-08-15T19:03:49.949Z,22.7
2017-08-15T19:04:51.854Z,22.8
2017-08-15T19:05:53.594Z,22.8
2017-08-15T19:06:55.413Z,22.8
2017-08-15T19:07:57.210Z,22.7
2017-08-15T19:09:03.779Z,22.7
2017-08-15T19:10:05.756Z,22.7
2017-08-15T19:11:08.752Z,22.7
2017-08-15T19:12:10.481Z,22.6
2017-08-15T19:13:13.178Z,22.6
2017-08-15T19:14:14.919Z,22.6
2017-08-15T19:15:16.669Z,22.5
2017-08-15T19:16:18.562Z,22.5
2017-08-15T19:17:25.269Z,22.5
2017-08-15T19:18:26.926Z,22.4
2017-08-15T19:19:29.691Z,22.5
2017-08-15T19:20:31.383Z,22.4
2017-08-15T19:21:35.190Z,22.4
2017-08-15T19:22:36.860Z,22.5
2017-08-15T19:23:38.652Z,22.5
2017-08-15T19:24:40.304Z,22.5
2017-08-15T19:25:42.041Z,22.5
2017-08-15T19:26:43.697Z,22.5
2017-08-15T19:27:45.436Z,22.4
2017-08-15T19:28:47.085Z,22.4
2017-08-15T19:29:48.831Z,22.4
2017-08-15T19:30:50.595Z,22.4
2017-08-15T19:31:52.308Z,22.4
2017-08-15T19:32:53.993Z,22.4
2017-08-15T19:33:55.705Z,22.4
2017-08-15T19:34:57.378Z,22.4
2017-08-15T19:35:59.298Z,22.3
2017-08-15T19:37:00.965Z,22.4
2017-08-15T19:38:02.705Z,22.3
2017-08-15T19:39:04.406Z,22.2
2017-08-15T19:40:06.211Z,22.1
2017-08-15T19:41:07.899Z,22.1
2017-08-15T19:42:09.830Z,22.0
2017-08-15T19:43:11.582Z,22.1
2017-08-15T19:44:13.256Z,22.0
2017-08-15T19:45:15.055Z,22.0
2017-08-15T19:46:16.704Z,22.0
2017-08-15T19:47:18.504Z,22.0
2017-08-15T19:48:20.297Z,22.0
2017-08-15T19:49:22.169Z,21.9
2017-08-15T19:50:23.927Z,21.9
2017-08-15T19:51:25.693Z,21.9
2017-08-15T19:52:27.362Z,21.8
2017-08-15T19:53:29.111Z,21.9
2017-08-15T19:54:30.862Z,21.8
2017-08-15T19:55:32.624Z,21.8
2017-08-15T19:56:34.404Z,21.8
2017-08-15T19:57:36.172Z,21.7
2017-08-15T19:58:38.078Z,21.7
2017-08-15T19:59:39.667Z,21.7
2017-08-15T20:00:41.738Z,21.7
2017-08-15T20:01:43.411Z,21.7
2017-08-15T20:02:45.132Z,21.7
2017-08-15T20:03:46.786Z,21.7
2017-08-15T20:04:48.648Z,21.7
2017-08-15T20:05:52.569Z,21.6
2017-08-15T20:06:54.614Z,21.6
2017-08-15T20:08:09.512Z,21.6
2017-08-15T20:09:11.100Z,21.6
2017-08-15T20:10:18.081Z,21.6
2017-08-15T20:11:19.925Z,21.6
2017-08-15T20:12:21.715Z,21.6
2017-08-15T20:13:23.369Z,21.7
2017-08-15T20:14:25.129Z,21.6
2017-08-15T20:15:26.799Z,21.7
2017-08-15T20:16:28.563Z,21.6
2017-08-15T20:17:30.267Z,21.6
2017-08-15T20:18:31.964Z,21.6
2017-08-15T20:19:33.659Z,21.6
2017-08-15T20:20:35.399Z,21.6
2017-08-15T20:21:37.139Z,21.6
2017-08-15T20:22:38.862Z,21.5
2017-08-15T20:23:40.517Z,21.5
2017-08-15T20:24:44.486Z,21.5
2017-08-15T20:25:46.162Z,21.3
2017-08-15T20:26:48.934Z,21.4
2017-08-15T20:27:50.876Z,21.4
2017-08-15T20:28:53.666Z,21.3
2017-08-15T20:29:55.374Z,21.5
2017-08-15T20:30:57.139Z,21.4
2017-08-15T20:31:58.906Z,21.4
2017-08-15T20:33:01.660Z,21.4
2017-08-15T20:34:03.314Z,21.4
2017-08-15T20:35:05.070Z,21.4
2017-08-15T20:36:06.721Z,21.2
2017-08-15T20:37:09.598Z,21.2
2017-08-15T20:38:11.262Z,21.1
2017-08-15T20:39:12.960Z,21.1
2017-08-15T20:40:14.645Z,21.1
2017-08-15T20:41:16.360Z,21.0
2017-08-15T20:42:18.071Z,21.1
2017-08-15T20:43:19.795Z,21.0
2017-08-15T20:44:21.592Z,21.0
2017-08-15T20:45:23.340Z,21.0
2017-08-15T20:46:25.036Z,20.9
2017-08-15T20:47:26.740Z,20.9
2017-08-15T20:48:28.411Z,21.0
2017-08-15T20:49:35.780Z,20.9
2017-08-15T20:50:37.477Z,20.8
2017-08-15T20:51:39.343Z,20.8
2017-08-15T20:52:40.982Z,20.8
2017-08-15T20:53:42.706Z,20.9
2017-08-15T20:54:44.414Z,20.8
2017-08-15T20:55:46.160Z,20.7
2017-08-15T20:56:47.868Z,20.7
2017-08-15T20:57:49.560Z,20.7
2017-08-15T20:58:51.221Z,20.7
2017-08-15T20:59:53.044Z,20.6
2017-08-15T21:00:54.725Z,20.7
2017-08-15T21:01:56.463Z,20.7
2017-08-15T21:02:58.140Z,20.7
2017-08-15T21:03:59.861Z,20.7
2017-08-15T21:05:01.524Z,20.7
2017-08-15T21:06:03.253Z,20.7
2017-08-15T21:07:04.914Z,20.6
2017-08-15T21:08:06.697Z,20.6
2017-08-15T21:09:08.401Z,20.6
2017-08-15T21:10:10.069Z,20.5
2017-08-15T21:11:11.742Z,20.5
2017-08-15T21:12:13.402Z,20.5
2017-08-15T21:13:15.106Z,20.5
2017-08-15T21:14:16.866Z,20.5
2017-08-15T21:15:18.553Z,20.5
2017-08-15T21:16:20.263Z,20.5
2017-08-15T21:17:22.024Z,20.6
2017-08-15T21:18:23.751Z,20.5
2017-08-15T21:19:25.398Z,20.5
2017-08-15T21:20:27.145Z,20.5
2017-08-15T21:21:28.807Z,20.5
2017-08-15T21:22:30.581Z,20.4
2017-08-15T21:23:32.234Z,20.5
2017-08-15T21:24:33.988Z,20.5
2017-08-15T21:25:35.660Z,20.5
2017-08-15T21:26:37.419Z,20.5
2017-08-15T21:27:39.065Z,20.4
2017-08-15T21:28:40.820Z,20.3
2017-08-15T21:29:42.512Z,20.4
2017-08-15T21:30:44.202Z,20.3
2017-08-15T21:31:45.884Z,20.4
2017-08-15T21:32:47.597Z,20.3
2017-08-15T21:33:49.262Z,20.3
2017-08-15T21:34:50.989Z,20.4
2017-08-15T21:35:52.654Z,20.3
2017-08-15T21:36:54.384Z,20.4
2017-08-15T21:37:56.057Z,20.5
2017-08-15T21:38:57.782Z,20.5
2017-08-15T21:39:59.458Z,20.5
2017-08-15T21:41:01.181Z,20.6
2017-08-15T21:42:02.842Z,20.6
2017-08-15T21:43:04.587Z,20.7
2017-08-15T21:44:06.262Z,20.7
2017-08-15T21:45:07.967Z,20.7
2017-08-15T21:46:09.613Z,20.6
2017-08-15T21:47:11.344Z,20.6
2017-08-15T21:48:13.001Z,20.5
2017-08-15T21:49:14.747Z,20.6
2017-08-15T21:50:16.445Z,20.7
2017-08-15T21:51:18.155Z,20.6
2017-08-15T21:52:19.803Z,20.6
2017-08-15T21:53:21.546Z,20.6
2017-08-15T21:54:23.321Z,20.5
2017-08-15T21:55:25.186Z,20.5
2017-08-15T21:56:26.838Z,20.5
2017-08-15T21:57:28.520Z,20.5
2017-08-15T21:58:30.680Z,20.4
2017-08-15T21:59:32.894Z,20.4
2017-08-15T22:00:34.786Z,20.4
2017-08-15T22:01:36.535Z,20.3
2017-08-15T22:02:38.223Z,20.3
2017-08-15T22:03:39.934Z,20.3
2017-08-15T22:04:41.583Z,20.2
2017-08-15T22:05:43.321Z,20.3
2017-08-15T22:06:45.036Z,20.3
2017-08-15T22:07:46.711Z,20.3
2017-08-15T22:08:48.381Z,20.1
2017-08-15T22:09:50.151Z,20.1
2017-08-15T22:10:51.809Z,20.0
2017-08-15T22:11:53.602Z,20.0
2017-08-15T22:12:55.346Z,20.0
2017-08-15T22:13:57.053Z,20.0
2017-08-15T22:14:58.783Z,20.0
2017-08-15T22:16:00.606Z,20.1
2017-08-15T22:17:02.337Z,20.1
2017-08-15T22:18:04.100Z,20.1
2017-08-15T22:19:05.761Z,20.2
2017-08-15T22:20:07.605Z,20.1
2017-08-15T22:21:09.347Z,20.1
2017-08-15T22:22:11.695Z,20.1
2017-08-15T22:23:13.393Z,20.1
2017-08-15T22:24:15.252Z,20.0
2017-08-15T22:25:16.986Z,20.1
2017-08-15T22:26:18.782Z,20.0
2017-08-15T22:27:20.515Z,20.1
2017-08-15T22:28:22.283Z,20.0
2017-08-15T22:29:24.040Z,20.1
2017-08-15T22:30:25.809Z,20.0
2017-08-15T22:31:27.544Z,20.1
2017-08-15T22:32:29.422Z,20.0
2017-08-15T22:33:31.167Z,20.0
2017-08-15T22:34:33.407Z,20.0
2017-08-15T22:35:35.125Z,20.0
2017-08-15T22:36:36.883Z,20.0
2017-08-15T22:37:38.536Z,20.0
2017-08-15T22:38:40.272Z,20.1
2017-08-15T22:39:42.011Z,20.0
2017-08-15T22:40:43.764Z,20.0
2017-08-15T22:41:45.739Z,20.0
2017-08-15T22:42:47.483Z,20.0
2017-08-15T22:43:49.215Z,19.9
2017-08-15T22:44:50.995Z,19.8
2017-08-15T22:45:52.688Z,19.7
2017-08-15T22:46:54.501Z,19.7
2017-08-15T22:47:56.290Z,19.8
2017-08-15T22:48:58.036Z,19.9
2017-08-15T22:49:59.835Z,19.9
2017-08-15T22:51:01.669Z,19.9
2017-08-15T22:52:04.469Z,20.0
2017-08-15T22:53:06.557Z,20.0